7TVPP DAAG-LTAC
Flight info
| Callsign | 7TVPP |
|---|---|
| Flight time | 2h 56m |
| Altitude | 40000 |
| Route | BOURI UG26 REQIN DCT TABOT DCT ALEDI DCT RONAB DCT PEVIR DCT NILTO DCT ULFIG DCT GOKEL/N0449F410 DCT PINDO UM603 PEREN UN644 NONDU UW81 EKI UG12 YAA UG8 PIMAV UL614 TOKER UG8 UMRUN |
| Aircraft | A343/H-SDE2E3FGHIJ4J5M1RWXY/LB1D1 |
Departure
| Time | 2026-05-07 13:27 |
|---|---|
| Airport | Houari Boumediene Airport (DAAG) |
Arrival
| Time | 2026-05-07 16:24 |
|---|---|
| Airport | Esenboğa International Airport (LTAC) |
| Time | Latitude | Longitude | Altitude | Speed | Heading |
|---|---|---|---|---|---|
| 2026-05-07 13:03 | 36.69428 | 3.19553 | 63 ft | 0 kts | 93° |
| 2026-05-07 13:21 | 36.69428 | 3.19556 | 74 ft | 1 kts | 93° |
| 2026-05-07 13:21 | 36.69427 | 3.19566 | 67 ft | 2 kts | 99° |
| 2026-05-07 13:21 | 36.69422 | 3.19584 | 71 ft | 3 kts | 110° |
| 2026-05-07 13:21 | 36.69404 | 3.19613 | 65 ft | 5 kts | 137° |
| 2026-05-07 13:22 | 36.69367 | 3.19631 | 65 ft | 7 kts | 163° |
| 2026-05-07 13:22 | 36.69325 | 3.19667 | 68 ft | 8 kts | 127° |
| 2026-05-07 13:22 | 36.69311 | 3.19751 | 75 ft | 12 kts | 94° |
| 2026-05-07 13:22 | 36.69307 | 3.19870 | 67 ft | 16 kts | 92° |
| 2026-05-07 13:23 | 36.69304 | 3.20015 | 71 ft | 18 kts | 91° |
| 2026-05-07 13:23 | 36.69300 | 3.20179 | 70 ft | 20 kts | 91° |
| 2026-05-07 13:23 | 36.69296 | 3.20357 | 69 ft | 21 kts | 92° |
| 2026-05-07 13:23 | 36.69293 | 3.20504 | 67 ft | 9 kts | 91° |
| 2026-05-07 13:24 | 36.69291 | 3.20588 | 66 ft | 11 kts | 91° |
| 2026-05-07 13:24 | 36.69288 | 3.20696 | 68 ft | 14 kts | 91° |
| 2026-05-07 13:24 | 36.69285 | 3.20814 | 75 ft | 2 kts | 91° |
| 2026-05-07 13:24 | 36.69285 | 3.20829 | 73 ft | 5 kts | 91° |
| 2026-05-07 13:25 | 36.69275 | 3.20896 | 66 ft | 10 kts | 113° |
| 2026-05-07 13:25 | 36.69213 | 3.20953 | 67 ft | 12 kts | 161° |
| 2026-05-07 13:25 | 36.69169 | 3.20962 | 71 ft | 6 kts | 179° |
| 2026-05-07 13:25 | 36.69136 | 3.20947 | 84 ft | 5 kts | 219° |
| 2026-05-07 13:26 | 36.69117 | 3.20906 | 82 ft | 5 kts | 261° |
| 2026-05-07 13:26 | 36.69117 | 3.20870 | 82 ft | 4 kts | 270° |
| 2026-05-07 13:26 | 36.69117 | 3.20821 | 83 ft | 7 kts | 270° |
| 2026-05-07 13:26 | 36.69120 | 3.20669 | 84 ft | 45 kts | 272° |
| 2026-05-07 13:27 | 36.69137 | 3.19984 | 71 ft | 111 kts | 271° |
| 2026-05-07 13:27 | 36.69167 | 3.18798 | 88 ft | 161 kts | 271° |
| 2026-05-07 13:27 | 36.69217 | 3.17347 | 657 ft | 168 kts | 271° |
| 2026-05-07 13:27 | 36.69244 | 3.15864 | 1324 ft | 183 kts | 272° |
| 2026-05-07 13:28 | 36.69292 | 3.14087 | 1492 ft | 233 kts | 271° |
| 2026-05-07 13:28 | 36.69412 | 3.11915 | 1910 ft | 264 kts | 279° |
| 2026-05-07 13:28 | 36.70164 | 3.09820 | 3087 ft | 264 kts | 309° |
| 2026-05-07 13:28 | 36.71607 | 3.08505 | 4585 ft | 259 kts | 338° |
| 2026-05-07 13:29 | 36.73388 | 3.08273 | 5796 ft | 269 kts | 10° |
| 2026-05-07 13:29 | 36.75055 | 3.09325 | 6908 ft | 275 kts | 44° |
| 2026-05-07 13:29 | 36.76310 | 3.11147 | 8039 ft | 280 kts | 54° |
| 2026-05-07 13:29 | 36.77513 | 3.13121 | 9187 ft | 288 kts | 54° |
| 2026-05-07 13:30 | 36.78767 | 3.15110 | 10294 ft | 295 kts | 53° |
| 2026-05-07 13:30 | 36.80096 | 3.17158 | 10903 ft | 316 kts | 52° |
| 2026-05-07 13:30 | 36.81546 | 3.19368 | 11385 ft | 339 kts | 52° |
| 2026-05-07 13:30 | 36.83069 | 3.21676 | 12031 ft | 355 kts | 52° |
| 2026-05-07 13:31 | 36.84666 | 3.24087 | 12823 ft | 366 kts | 52° |
| 2026-05-07 13:31 | 36.86317 | 3.26575 | 13635 ft | 378 kts | 52° |
| 2026-05-07 13:31 | 36.88028 | 3.29143 | 14425 ft | 387 kts | 52° |
| 2026-05-07 13:31 | 36.89772 | 3.31749 | 15177 ft | 394 kts | 51° |
| 2026-05-07 13:32 | 36.91538 | 3.34403 | 15882 ft | 399 kts | 51° |
| 2026-05-07 13:32 | 36.93308 | 3.37066 | 16562 ft | 405 kts | 51° |
| 2026-05-07 13:32 | 36.95121 | 3.39796 | 17282 ft | 410 kts | 51° |
| 2026-05-07 13:32 | 36.96956 | 3.42564 | 18023 ft | 415 kts | 51° |
| 2026-05-07 13:33 | 36.98815 | 3.45367 | 18603 ft | 422 kts | 51° |
| 2026-05-07 13:33 | 37.00696 | 3.48206 | 19254 ft | 426 kts | 51° |
| 2026-05-07 13:33 | 37.02593 | 3.51073 | 19912 ft | 429 kts | 51° |
| 2026-05-07 13:33 | 37.04489 | 3.53940 | 20543 ft | 433 kts | 51° |
| 2026-05-07 13:34 | 37.06421 | 3.56864 | 21201 ft | 437 kts | 51° |
| 2026-05-07 13:34 | 37.10334 | 3.62794 | 22439 ft | 445 kts | 51° |
| 2026-05-07 13:34 | 37.12318 | 3.65805 | 23063 ft | 450 kts | 51° |
| 2026-05-07 13:35 | 37.14322 | 3.68849 | 23655 ft | 454 kts | 51° |
| 2026-05-07 13:35 | 37.16322 | 3.71890 | 24121 ft | 458 kts | 51° |
| 2026-05-07 13:35 | 37.18358 | 3.74988 | 24594 ft | 463 kts | 52° |
| 2026-05-07 13:35 | 37.20416 | 3.78123 | 24993 ft | 468 kts | 52° |
| 2026-05-07 13:36 | 37.22501 | 3.81303 | 25459 ft | 471 kts | 52° |
| 2026-05-07 13:36 | 37.24587 | 3.84486 | 26002 ft | 472 kts | 52° |
| 2026-05-07 13:36 | 37.26681 | 3.87685 | 26447 ft | 475 kts | 52° |
| 2026-05-07 13:36 | 37.28788 | 3.90906 | 26881 ft | 479 kts | 52° |
| 2026-05-07 13:37 | 37.30911 | 3.94155 | 27329 ft | 482 kts | 52° |
| 2026-05-07 13:37 | 37.33042 | 3.97420 | 27754 ft | 485 kts | 52° |
| 2026-05-07 13:37 | 37.35192 | 4.00717 | 28157 ft | 489 kts | 52° |
| 2026-05-07 13:37 | 37.37350 | 4.04030 | 28576 ft | 492 kts | 52° |
| 2026-05-07 13:38 | 37.39498 | 4.07331 | 28972 ft | 495 kts | 52° |
| 2026-05-07 13:38 | 37.41685 | 4.10695 | 29380 ft | 498 kts | 52° |
| 2026-05-07 13:38 | 37.43889 | 4.14090 | 29758 ft | 501 kts | 52° |
| 2026-05-07 13:38 | 37.46098 | 4.17495 | 30092 ft | 504 kts | 52° |
| 2026-05-07 13:39 | 37.48327 | 4.20935 | 30365 ft | 508 kts | 52° |
| 2026-05-07 13:39 | 37.50554 | 4.24375 | 30637 ft | 511 kts | 52° |
| 2026-05-07 13:39 | 37.52811 | 4.27864 | 30885 ft | 515 kts | 52° |
| 2026-05-07 13:39 | 37.55087 | 4.31387 | 31152 ft | 519 kts | 52° |
| 2026-05-07 13:40 | 37.57380 | 4.34939 | 31410 ft | 523 kts | 52° |
| 2026-05-07 13:40 | 37.59687 | 4.38519 | 31668 ft | 526 kts | 52° |
| 2026-05-07 13:40 | 37.61975 | 4.42071 | 31964 ft | 528 kts | 52° |
| 2026-05-07 13:40 | 37.64290 | 4.45670 | 32336 ft | 529 kts | 52° |
| 2026-05-07 13:41 | 37.66607 | 4.49276 | 32743 ft | 528 kts | 52° |
| 2026-05-07 13:41 | 37.68926 | 4.52889 | 33064 ft | 530 kts | 52° |
| 2026-05-07 13:41 | 37.71254 | 4.56520 | 33391 ft | 531 kts | 52° |
| 2026-05-07 13:41 | 37.73593 | 4.60173 | 33579 ft | 535 kts | 52° |
| 2026-05-07 13:42 | 37.75919 | 4.63808 | 33736 ft | 540 kts | 52° |
| 2026-05-07 13:42 | 37.78284 | 4.67510 | 34051 ft | 540 kts | 52° |
| 2026-05-07 13:42 | 37.80644 | 4.71207 | 34384 ft | 539 kts | 52° |
| 2026-05-07 13:42 | 37.83003 | 4.74907 | 34723 ft | 539 kts | 51° |
| 2026-05-07 13:43 | 37.85357 | 4.78603 | 35049 ft | 538 kts | 51° |
| 2026-05-07 13:43 | 37.87675 | 4.82248 | 35500 ft | 534 kts | 51° |
| 2026-05-07 13:43 | 37.89997 | 4.85903 | 35879 ft | 532 kts | 51° |
| 2026-05-07 13:43 | 37.92328 | 4.89575 | 36143 ft | 533 kts | 51° |
| 2026-05-07 13:44 | 37.94659 | 4.93252 | 36406 ft | 534 kts | 51° |
| 2026-05-07 13:44 | 37.96988 | 4.96930 | 36601 ft | 536 kts | 51° |
| 2026-05-07 13:44 | 37.99409 | 5.00505 | 36653 ft | 541 kts | 45° |
| 2026-05-07 13:44 | 38.02054 | 5.03917 | 36896 ft | 541 kts | 43° |
| 2026-05-07 13:45 | 38.04755 | 5.07237 | 37205 ft | 540 kts | 42° |
| 2026-05-07 13:45 | 38.07484 | 5.10523 | 37535 ft | 539 kts | 42° |
| 2026-05-07 13:45 | 38.10210 | 5.13787 | 37918 ft | 537 kts | 42° |
| 2026-05-07 13:45 | 38.12886 | 5.17001 | 38266 ft | 535 kts | 42° |
| 2026-05-07 13:46 | 38.15585 | 5.20260 | 38537 ft | 535 kts | 42° |
| 2026-05-07 13:46 | 38.18285 | 5.23538 | 38772 ft | 535 kts | 42° |
| 2026-05-07 13:46 | 38.20968 | 5.26807 | 39018 ft | 534 kts | 42° |
| 2026-05-07 13:46 | 38.23651 | 5.30088 | 39271 ft | 533 kts | 42° |
| 2026-05-07 13:47 | 38.26319 | 5.33356 | 39486 ft | 532 kts | 42° |
| 2026-05-07 13:47 | 38.31689 | 5.39943 | 39618 ft | 538 kts | 43° |
| 2026-05-07 13:47 | 38.34394 | 5.43266 | 39836 ft | 538 kts | 43° |
| 2026-05-07 13:48 | 38.37062 | 5.46547 | 39913 ft | 542 kts | 43° |
| 2026-05-07 13:48 | 38.42520 | 5.53267 | 39907 ft | 546 kts | 43° |
| 2026-05-07 13:49 | 38.47968 | 5.59993 | 39905 ft | 543 kts | 43° |
| 2026-05-07 13:49 | 38.53404 | 5.66717 | 39928 ft | 543 kts | 43° |
| 2026-05-07 13:50 | 38.58782 | 5.73386 | 39899 ft | 541 kts | 43° |
| 2026-05-07 13:50 | 38.64247 | 5.80174 | 39915 ft | 551 kts | 43° |
| 2026-05-07 13:51 | 38.69765 | 5.87045 | 39912 ft | 553 kts | 43° |
| 2026-05-07 13:51 | 38.75248 | 5.93889 | 39940 ft | 553 kts | 43° |
| 2026-05-07 13:52 | 38.80731 | 6.00751 | 39914 ft | 546 kts | 43° |
| 2026-05-07 13:52 | 38.86154 | 6.07550 | 39913 ft | 544 kts | 43° |
| 2026-05-07 13:53 | 38.91557 | 6.14338 | 39922 ft | 550 kts | 43° |
| 2026-05-07 13:53 | 38.96881 | 6.21529 | 39943 ft | 560 kts | 54° |
| 2026-05-07 13:53 | 38.98930 | 6.25781 | 39923 ft | 556 kts | 67° |
| 2026-05-07 13:54 | 39.00277 | 6.30400 | 39924 ft | 545 kts | 81° |
| 2026-05-07 13:54 | 39.01518 | 6.39880 | 39918 ft | 537 kts | 89° |
| 2026-05-07 13:55 | 39.02354 | 6.49393 | 39903 ft | 538 kts | 91° |
| 2026-05-07 13:55 | 39.03156 | 6.59035 | 39927 ft | 545 kts | 91° |
| 2026-05-07 13:56 | 39.04004 | 6.68767 | 39926 ft | 546 kts | 90° |
| 2026-05-07 13:56 | 39.04865 | 6.78416 | 39931 ft | 546 kts | 90° |
| 2026-05-07 13:57 | 39.05729 | 6.88156 | 39918 ft | 547 kts | 91° |
| 2026-05-07 13:57 | 39.06579 | 6.97880 | 39927 ft | 551 kts | 91° |
| 2026-05-07 13:58 | 39.07429 | 7.07694 | 39928 ft | 551 kts | 91° |
| 2026-05-07 13:58 | 39.08272 | 7.17512 | 39923 ft | 551 kts | 91° |
| 2026-05-07 13:59 | 39.09107 | 7.27345 | 39923 ft | 551 kts | 91° |
| 2026-05-07 13:59 | 39.09925 | 7.37083 | 39923 ft | 551 kts | 91° |
| 2026-05-07 14:00 | 39.10741 | 7.46911 | 39924 ft | 551 kts | 91° |
| 2026-05-07 14:00 | 39.11549 | 7.56736 | 39928 ft | 550 kts | 91° |
| 2026-05-07 14:01 | 39.12345 | 7.66513 | 39926 ft | 553 kts | 91° |
| 2026-05-07 14:01 | 39.13140 | 7.76400 | 39923 ft | 554 kts | 91° |
| 2026-05-07 14:02 | 39.13926 | 7.86250 | 39924 ft | 554 kts | 91° |
| 2026-05-07 14:02 | 39.14708 | 7.96130 | 39925 ft | 555 kts | 91° |
| 2026-05-07 14:02 | 39.15404 | 8.01072 | 39923 ft | 563 kts | 79° |
| 2026-05-07 14:03 | 39.16421 | 8.05907 | 39925 ft | 566 kts | 78° |
| 2026-05-07 14:03 | 39.18695 | 8.15646 | 39925 ft | 568 kts | 77° |
| 2026-05-07 14:04 | 39.20662 | 8.23738 | 39925 ft | 568 kts | 77° |
| 2026-05-07 14:04 | 39.23015 | 8.33479 | 39925 ft | 568 kts | 77° |
| 2026-05-07 14:05 | 39.25340 | 8.43250 | 39917 ft | 568 kts | 77° |
| 2026-05-07 14:05 | 39.27635 | 8.52974 | 39930 ft | 568 kts | 77° |
| 2026-05-07 14:06 | 39.29929 | 8.62741 | 39930 ft | 568 kts | 77° |
| 2026-05-07 14:06 | 39.32218 | 8.72525 | 39917 ft | 569 kts | 76° |
| 2026-05-07 14:07 | 39.34491 | 8.82280 | 39937 ft | 568 kts | 76° |
| 2026-05-07 14:07 | 39.36762 | 8.92064 | 39938 ft | 568 kts | 77° |
| 2026-05-07 14:08 | 39.39026 | 9.01857 | 39927 ft | 568 kts | 77° |
| 2026-05-07 14:08 | 39.41270 | 9.11611 | 39928 ft | 568 kts | 76° |
| 2026-05-07 14:09 | 39.43518 | 9.21423 | 39935 ft | 568 kts | 76° |
| 2026-05-07 14:09 | 39.45759 | 9.31244 | 39949 ft | 569 kts | 76° |
| 2026-05-07 14:10 | 39.47999 | 9.41101 | 40008 ft | 570 kts | 76° |
| 2026-05-07 14:10 | 39.50210 | 9.50892 | 40015 ft | 568 kts | 76° |
| 2026-05-07 14:11 | 39.52426 | 9.60723 | 40015 ft | 568 kts | 76° |
| 2026-05-07 14:11 | 39.54620 | 9.70507 | 39989 ft | 569 kts | 76° |
| 2026-05-07 14:12 | 39.56822 | 9.80374 | 39976 ft | 569 kts | 76° |
| 2026-05-07 14:12 | 39.59018 | 9.90259 | 39957 ft | 569 kts | 76° |
| 2026-05-07 14:13 | 39.61085 | 10.00173 | 39969 ft | 568 kts | 81° |
| 2026-05-07 14:13 | 39.62627 | 10.10163 | 39959 ft | 568 kts | 82° |
| 2026-05-07 14:14 | 39.64078 | 10.20278 | 39957 ft | 574 kts | 83° |
| 2026-05-07 14:14 | 39.65534 | 10.30600 | 39953 ft | 583 kts | 82° |
| 2026-05-07 14:15 | 39.66998 | 10.40957 | 39959 ft | 588 kts | 82° |
| 2026-05-07 14:15 | 39.68475 | 10.51406 | 39951 ft | 587 kts | 82° |
| 2026-05-07 14:16 | 39.69941 | 10.61843 | 39944 ft | 586 kts | 82° |
| 2026-05-07 14:16 | 39.71391 | 10.72252 | 39954 ft | 585 kts | 82° |
| 2026-05-07 14:17 | 39.72823 | 10.82615 | 39951 ft | 585 kts | 82° |
| 2026-05-07 14:17 | 39.74254 | 10.93037 | 39962 ft | 585 kts | 82° |
| 2026-05-07 14:18 | 39.75672 | 11.03435 | 39946 ft | 587 kts | 82° |
| 2026-05-07 14:18 | 39.77088 | 11.13894 | 39949 ft | 587 kts | 83° |
| 2026-05-07 14:19 | 39.78495 | 11.24350 | 39953 ft | 587 kts | 83° |
| 2026-05-07 14:19 | 39.79892 | 11.34817 | 39942 ft | 587 kts | 82° |
| 2026-05-07 14:20 | 39.81275 | 11.45246 | 39948 ft | 587 kts | 82° |
| 2026-05-07 14:20 | 39.82654 | 11.55723 | 39945 ft | 587 kts | 83° |
| 2026-05-07 14:21 | 39.84027 | 11.66230 | 39944 ft | 587 kts | 83° |
| 2026-05-07 14:21 | 39.85378 | 11.76647 | 39949 ft | 586 kts | 82° |
| 2026-05-07 14:22 | 39.86740 | 11.87134 | 39966 ft | 586 kts | 81° |
| 2026-05-07 14:22 | 39.88683 | 11.97485 | 39949 ft | 589 kts | 76° |
| 2026-05-07 14:23 | 39.90773 | 12.07751 | 39942 ft | 589 kts | 75° |
| 2026-05-07 14:23 | 39.92896 | 12.18060 | 39948 ft | 588 kts | 75° |
| 2026-05-07 14:24 | 39.95001 | 12.28372 | 39949 ft | 588 kts | 76° |
| 2026-05-07 14:24 | 39.97085 | 12.38689 | 39945 ft | 588 kts | 76° |
| 2026-05-07 14:25 | 39.99143 | 12.48951 | 39946 ft | 587 kts | 76° |
| 2026-05-07 14:25 | 40.01204 | 12.59269 | 39945 ft | 587 kts | 76° |
| 2026-05-07 14:26 | 40.03255 | 12.69587 | 39948 ft | 587 kts | 76° |
| 2026-05-07 14:26 | 40.05285 | 12.79852 | 39940 ft | 587 kts | 76° |
| 2026-05-07 14:27 | 40.07316 | 12.90174 | 39943 ft | 585 kts | 76° |
| 2026-05-07 14:27 | 40.09327 | 13.00446 | 39944 ft | 585 kts | 76° |
| 2026-05-07 14:28 | 40.11338 | 13.10772 | 39944 ft | 585 kts | 76° |
| 2026-05-07 14:28 | 40.13334 | 13.21079 | 39943 ft | 584 kts | 76° |
| 2026-05-07 14:29 | 40.15319 | 13.31376 | 39951 ft | 584 kts | 76° |
| 2026-05-07 14:29 | 40.17289 | 13.41647 | 39943 ft | 585 kts | 76° |
| 2026-05-07 14:30 | 40.19264 | 13.51999 | 39933 ft | 585 kts | 75° |
| 2026-05-07 14:30 | 40.21209 | 13.62253 | 39946 ft | 584 kts | 76° |
| 2026-05-07 14:31 | 40.23165 | 13.72613 | 39948 ft | 584 kts | 76° |
| 2026-05-07 14:31 | 40.25092 | 13.82872 | 39942 ft | 584 kts | 76° |
| 2026-05-07 14:32 | 40.27024 | 13.93220 | 39939 ft | 583 kts | 76° |
| 2026-05-07 14:32 | 40.28332 | 14.03685 | 39953 ft | 582 kts | 86° |
| 2026-05-07 14:33 | 40.28905 | 14.14203 | 39944 ft | 582 kts | 88° |
| 2026-05-07 14:33 | 40.29344 | 14.24822 | 39930 ft | 582 kts | 88° |
| 2026-05-07 14:34 | 40.29766 | 14.35358 | 39944 ft | 581 kts | 88° |
| 2026-05-07 14:34 | 40.30202 | 14.45936 | 39944 ft | 581 kts | 88° |
| 2026-05-07 14:35 | 40.30639 | 14.56532 | 39940 ft | 581 kts | 88° |
| 2026-05-07 14:35 | 40.31068 | 14.67134 | 39935 ft | 581 kts | 88° |
| 2026-05-07 14:36 | 40.31484 | 14.77665 | 39944 ft | 581 kts | 88° |
| 2026-05-07 14:36 | 40.31890 | 14.88248 | 39937 ft | 581 kts | 88° |
| 2026-05-07 14:37 | 40.32288 | 14.98851 | 39941 ft | 581 kts | 88° |
| 2026-05-07 14:37 | 40.32864 | 15.14693 | 39947 ft | 581 kts | 88° |
| 2026-05-07 14:38 | 40.33237 | 15.25292 | 39986 ft | 581 kts | 88° |
| 2026-05-07 14:38 | 40.33598 | 15.35818 | 39951 ft | 581 kts | 88° |
| 2026-05-07 14:39 | 40.33951 | 15.46410 | 39952 ft | 581 kts | 88° |
| 2026-05-07 14:39 | 40.34297 | 15.57017 | 39955 ft | 582 kts | 88° |
| 2026-05-07 14:40 | 40.34682 | 15.67627 | 39978 ft | 581 kts | 85° |
| 2026-05-07 14:40 | 40.35368 | 15.78124 | 39982 ft | 580 kts | 84° |
| 2026-05-07 14:41 | 40.36110 | 15.88670 | 39986 ft | 580 kts | 84° |
| 2026-05-07 14:41 | 40.36792 | 15.99210 | 40000 ft | 580 kts | 85° |
| 2026-05-07 14:42 | 40.37425 | 16.09715 | 40010 ft | 579 kts | 85° |
| 2026-05-07 14:42 | 40.38043 | 16.20264 | 40033 ft | 579 kts | 85° |
| 2026-05-07 14:43 | 40.38658 | 16.30734 | 40056 ft | 579 kts | 85° |
| 2026-05-07 14:43 | 40.39267 | 16.41303 | 40099 ft | 579 kts | 85° |
| 2026-05-07 14:44 | 40.39862 | 16.51798 | 40133 ft | 579 kts | 85° |
| 2026-05-07 14:44 | 40.40452 | 16.62366 | 40127 ft | 579 kts | 85° |
| 2026-05-07 14:45 | 40.41027 | 16.72853 | 40125 ft | 579 kts | 85° |
| 2026-05-07 14:45 | 40.41596 | 16.83414 | 40102 ft | 579 kts | 85° |
| 2026-05-07 14:46 | 40.42152 | 16.93901 | 40033 ft | 579 kts | 85° |
| 2026-05-07 14:46 | 40.42704 | 17.04487 | 40047 ft | 579 kts | 85° |
| 2026-05-07 14:47 | 40.43240 | 17.14970 | 40053 ft | 579 kts | 84° |
| 2026-05-07 14:47 | 40.43772 | 17.25542 | 40041 ft | 579 kts | 85° |
| 2026-05-07 14:48 | 40.44294 | 17.36117 | 40052 ft | 579 kts | 85° |
| 2026-05-07 14:48 | 40.44850 | 17.46666 | 40047 ft | 577 kts | 82° |
| 2026-05-07 14:49 | 40.45905 | 17.57023 | 40047 ft | 574 kts | 78° |
| 2026-05-07 14:49 | 40.47112 | 17.67431 | 40039 ft | 574 kts | 79° |
| 2026-05-07 14:50 | 40.48050 | 17.76083 | 40031 ft | 575 kts | 79° |
| 2026-05-07 14:50 | 40.49277 | 17.88202 | 40049 ft | 574 kts | 79° |
| 2026-05-07 14:51 | 40.50130 | 17.96864 | 40042 ft | 574 kts | 80° |
| 2026-05-07 14:51 | 40.51148 | 18.07274 | 40045 ft | 574 kts | 80° |
| 2026-05-07 14:52 | 40.52156 | 18.17638 | 40045 ft | 574 kts | 80° |
| 2026-05-07 14:52 | 40.53165 | 18.28081 | 40051 ft | 573 kts | 80° |
| 2026-05-07 14:53 | 40.54157 | 18.38463 | 40043 ft | 571 kts | 80° |
| 2026-05-07 14:53 | 40.55131 | 18.48760 | 40035 ft | 571 kts | 80° |
| 2026-05-07 14:54 | 40.56102 | 18.59116 | 40049 ft | 571 kts | 80° |
| 2026-05-07 14:54 | 40.57065 | 18.69490 | 40052 ft | 571 kts | 80° |
| 2026-05-07 14:55 | 40.58020 | 18.79881 | 40053 ft | 570 kts | 80° |
| 2026-05-07 14:55 | 40.58957 | 18.90190 | 40055 ft | 568 kts | 80° |
| 2026-05-07 14:56 | 40.59670 | 19.00515 | 40122 ft | 572 kts | 90° |
| 2026-05-07 14:56 | 40.59535 | 19.05764 | 40285 ft | 572 kts | 91° |
| 2026-05-07 14:56 | 40.59318 | 19.10976 | 40428 ft | 566 kts | 93° |
| 2026-05-07 14:57 | 40.59056 | 19.16076 | 40597 ft | 560 kts | 93° |
| 2026-05-07 14:57 | 40.58771 | 19.21186 | 40831 ft | 558 kts | 94° |
| 2026-05-07 14:57 | 40.58480 | 19.26276 | 41017 ft | 557 kts | 94° |
| 2026-05-07 14:57 | 40.58190 | 19.31378 | 41056 ft | 557 kts | 94° |
| 2026-05-07 14:58 | 40.57623 | 19.41489 | 41054 ft | 556 kts | 94° |
| 2026-05-07 14:58 | 40.57057 | 19.51637 | 41054 ft | 554 kts | 93° |
| 2026-05-07 14:59 | 40.56487 | 19.61750 | 41052 ft | 553 kts | 93° |
| 2026-05-07 14:59 | 40.55911 | 19.71817 | 41046 ft | 553 kts | 94° |
| 2026-05-07 15:00 | 40.55316 | 19.81929 | 41056 ft | 552 kts | 93° |
| 2026-05-07 15:00 | 40.54721 | 19.91967 | 41052 ft | 549 kts | 94° |
| 2026-05-07 15:01 | 40.54129 | 20.01908 | 41057 ft | 548 kts | 94° |
| 2026-05-07 15:01 | 40.53524 | 20.11895 | 41072 ft | 547 kts | 94° |
| 2026-05-07 15:02 | 40.52908 | 20.21874 | 41084 ft | 545 kts | 93° |
| 2026-05-07 15:02 | 40.52288 | 20.31809 | 41085 ft | 545 kts | 93° |
| 2026-05-07 15:03 | 40.51659 | 20.41690 | 41102 ft | 545 kts | 94° |
| 2026-05-07 15:03 | 40.51019 | 20.51622 | 41111 ft | 544 kts | 94° |
| 2026-05-07 15:04 | 40.50377 | 20.61481 | 41124 ft | 542 kts | 94° |
| 2026-05-07 15:04 | 40.49724 | 20.71372 | 41121 ft | 542 kts | 94° |
| 2026-05-07 15:05 | 40.49066 | 20.81191 | 41130 ft | 542 kts | 94° |
| 2026-05-07 15:05 | 40.48397 | 20.91029 | 41125 ft | 538 kts | 95° |
| 2026-05-07 15:06 | 40.47694 | 21.00804 | 41131 ft | 537 kts | 96° |
| 2026-05-07 15:06 | 40.46783 | 21.10472 | 41135 ft | 536 kts | 97° |
| 2026-05-07 15:07 | 40.45821 | 21.20189 | 41137 ft | 536 kts | 97° |
| 2026-05-07 15:07 | 40.45181 | 21.29933 | 41133 ft | 534 kts | 90° |
| 2026-05-07 15:08 | 40.45188 | 21.39713 | 41119 ft | 534 kts | 88° |
| 2026-05-07 15:08 | 40.45292 | 21.49416 | 41112 ft | 534 kts | 88° |
| 2026-05-07 15:09 | 40.45394 | 21.59207 | 41138 ft | 535 kts | 88° |
| 2026-05-07 15:09 | 40.45474 | 21.68993 | 41140 ft | 535 kts | 88° |
| 2026-05-07 15:10 | 40.45537 | 21.78704 | 41135 ft | 535 kts | 88° |
| 2026-05-07 15:10 | 40.45593 | 21.88485 | 41140 ft | 534 kts | 88° |
| 2026-05-07 15:11 | 40.45640 | 21.98187 | 41142 ft | 534 kts | 88° |
| 2026-05-07 15:11 | 40.45680 | 22.07956 | 41130 ft | 533 kts | 89° |
| 2026-05-07 15:12 | 40.45713 | 22.17638 | 41122 ft | 532 kts | 89° |
| 2026-05-07 15:12 | 40.45737 | 22.27355 | 41111 ft | 531 kts | 89° |
| 2026-05-07 15:13 | 40.45751 | 22.37059 | 41113 ft | 531 kts | 89° |
| 2026-05-07 15:13 | 40.45762 | 22.46776 | 41112 ft | 531 kts | 89° |
| 2026-05-07 15:14 | 40.45767 | 22.56474 | 41111 ft | 531 kts | 89° |
| 2026-05-07 15:14 | 40.45761 | 22.66120 | 41111 ft | 530 kts | 89° |
| 2026-05-07 15:15 | 40.45748 | 22.75823 | 41125 ft | 531 kts | 89° |
| 2026-05-07 15:15 | 40.45728 | 22.85534 | 41124 ft | 530 kts | 89° |
| 2026-05-07 15:16 | 40.45702 | 22.95168 | 41126 ft | 530 kts | 89° |
| 2026-05-07 15:16 | 40.46527 | 23.04762 | 41126 ft | 528 kts | 78° |
| 2026-05-07 15:17 | 40.47863 | 23.14264 | 41127 ft | 527 kts | 77° |
| 2026-05-07 15:17 | 40.49262 | 23.23659 | 41115 ft | 527 kts | 77° |
| 2026-05-07 15:18 | 40.50659 | 23.33135 | 41111 ft | 527 kts | 77° |
| 2026-05-07 15:18 | 40.52033 | 23.42614 | 41113 ft | 527 kts | 77° |
| 2026-05-07 15:19 | 40.53391 | 23.52088 | 41102 ft | 527 kts | 77° |
| 2026-05-07 15:19 | 40.54731 | 23.61509 | 41112 ft | 526 kts | 77° |
| 2026-05-07 15:20 | 40.56069 | 23.70981 | 41107 ft | 525 kts | 77° |
| 2026-05-07 15:20 | 40.57390 | 23.80381 | 41104 ft | 525 kts | 77° |
| 2026-05-07 15:21 | 40.58707 | 23.89812 | 41104 ft | 524 kts | 77° |
| 2026-05-07 15:21 | 40.60291 | 23.99157 | 41107 ft | 522 kts | 71° |
| 2026-05-07 15:22 | 40.62371 | 24.08323 | 41106 ft | 521 kts | 70° |
| 2026-05-07 15:22 | 40.64498 | 24.17369 | 41105 ft | 520 kts | 70° |
| 2026-05-07 15:23 | 40.66638 | 24.26467 | 41105 ft | 519 kts | 70° |
| 2026-05-07 15:23 | 40.68764 | 24.35575 | 41104 ft | 519 kts | 70° |
| 2026-05-07 15:24 | 40.70862 | 24.44628 | 41105 ft | 519 kts | 70° |
| 2026-05-07 15:24 | 40.72959 | 24.53715 | 41106 ft | 518 kts | 70° |
| 2026-05-07 15:25 | 40.75051 | 24.62814 | 41105 ft | 517 kts | 71° |
| 2026-05-07 15:25 | 40.77132 | 24.71902 | 41105 ft | 516 kts | 71° |
| 2026-05-07 15:26 | 40.79200 | 24.80942 | 41086 ft | 516 kts | 71° |
| 2026-05-07 15:26 | 40.81265 | 24.90032 | 41092 ft | 516 kts | 71° |
| 2026-05-07 15:27 | 40.83322 | 24.99117 | 41106 ft | 517 kts | 71° |
| 2026-05-07 15:27 | 40.85363 | 25.08171 | 41103 ft | 514 kts | 71° |
| 2026-05-07 15:28 | 40.87386 | 25.17180 | 41109 ft | 512 kts | 71° |
| 2026-05-07 15:28 | 40.89413 | 25.26235 | 41109 ft | 512 kts | 71° |
| 2026-05-07 15:29 | 40.91428 | 25.35269 | 41110 ft | 511 kts | 71° |
| 2026-05-07 15:29 | 40.93418 | 25.44221 | 41111 ft | 509 kts | 71° |
| 2026-05-07 15:30 | 40.95397 | 25.53157 | 41107 ft | 507 kts | 71° |
| 2026-05-07 15:30 | 40.97375 | 25.62127 | 41102 ft | 507 kts | 71° |
| 2026-05-07 15:31 | 40.99338 | 25.71065 | 41093 ft | 504 kts | 71° |
| 2026-05-07 15:31 | 41.01287 | 25.79981 | 41088 ft | 503 kts | 71° |
| 2026-05-07 15:32 | 41.03214 | 25.88825 | 41088 ft | 502 kts | 72° |
| 2026-05-07 15:32 | 41.05145 | 25.97721 | 41084 ft | 501 kts | 72° |
| 2026-05-07 15:33 | 41.07064 | 26.06602 | 41086 ft | 500 kts | 72° |
| 2026-05-07 15:33 | 41.08961 | 26.15423 | 41086 ft | 500 kts | 72° |
| 2026-05-07 15:34 | 41.10868 | 26.24324 | 41091 ft | 500 kts | 72° |
| 2026-05-07 15:34 | 41.12386 | 26.33274 | 41084 ft | 502 kts | 83° |
| 2026-05-07 15:35 | 41.12721 | 26.42475 | 41079 ft | 491 kts | 87° |
| 2026-05-07 15:35 | 41.12830 | 26.51466 | 41085 ft | 484 kts | 88° |
| 2026-05-07 15:36 | 41.12907 | 26.60345 | 41081 ft | 484 kts | 88° |
| 2026-05-07 15:36 | 41.12390 | 26.69254 | 41084 ft | 485 kts | 102° |
| 2026-05-07 15:37 | 41.10595 | 26.77879 | 41085 ft | 486 kts | 107° |
| 2026-05-07 15:37 | 41.08569 | 26.86444 | 41086 ft | 486 kts | 107° |
| 2026-05-07 15:38 | 41.06858 | 26.93552 | 41089 ft | 487 kts | 107° |
| 2026-05-07 15:38 | 41.04820 | 27.02070 | 41091 ft | 487 kts | 107° |
| 2026-05-07 15:39 | 41.02778 | 27.10642 | 41091 ft | 487 kts | 107° |
| 2026-05-07 15:39 | 41.00736 | 27.19200 | 41090 ft | 487 kts | 107° |
| 2026-05-07 15:40 | 40.98691 | 27.27739 | 41092 ft | 489 kts | 107° |
| 2026-05-07 15:40 | 40.96625 | 27.36327 | 41091 ft | 489 kts | 107° |
| 2026-05-07 15:41 | 40.94548 | 27.44926 | 41093 ft | 489 kts | 108° |
| 2026-05-07 15:41 | 40.92365 | 27.53462 | 41095 ft | 490 kts | 109° |
| 2026-05-07 15:42 | 40.90129 | 27.61943 | 41099 ft | 491 kts | 109° |
| 2026-05-07 15:42 | 40.87884 | 27.70492 | 41098 ft | 491 kts | 109° |
| 2026-05-07 15:43 | 40.85648 | 27.79039 | 41098 ft | 491 kts | 109° |
| 2026-05-07 15:43 | 40.83412 | 27.87576 | 41100 ft | 491 kts | 109° |
| 2026-05-07 15:44 | 40.81181 | 27.96068 | 41100 ft | 491 kts | 109° |
| 2026-05-07 15:44 | 40.78932 | 28.04591 | 41099 ft | 491 kts | 109° |
| 2026-05-07 15:45 | 40.76685 | 28.13082 | 41100 ft | 493 kts | 109° |
| 2026-05-07 15:45 | 40.74414 | 28.21627 | 41097 ft | 493 kts | 109° |
| 2026-05-07 15:46 | 40.70994 | 28.34447 | 41094 ft | 494 kts | 109° |
| 2026-05-07 15:47 | 40.68707 | 28.42983 | 41095 ft | 494 kts | 109° |
| 2026-05-07 15:47 | 40.66415 | 28.51505 | 41094 ft | 495 kts | 109° |
| 2026-05-07 15:48 | 40.64105 | 28.60066 | 41094 ft | 495 kts | 109° |
| 2026-05-07 15:48 | 40.61790 | 28.68617 | 41093 ft | 495 kts | 109° |
| 2026-05-07 15:49 | 40.59463 | 28.77184 | 41093 ft | 497 kts | 109° |
| 2026-05-07 15:49 | 40.57140 | 28.85705 | 41095 ft | 497 kts | 109° |
| 2026-05-07 15:50 | 40.54797 | 28.94273 | 41090 ft | 497 kts | 109° |
| 2026-05-07 15:50 | 40.52464 | 29.02776 | 41094 ft | 497 kts | 109° |
| 2026-05-07 15:51 | 40.50108 | 29.11329 | 41094 ft | 498 kts | 109° |
| 2026-05-07 15:51 | 40.47855 | 29.19938 | 41094 ft | 497 kts | 102° |
| 2026-05-07 15:52 | 40.46687 | 29.28870 | 41099 ft | 495 kts | 96° |
| 2026-05-07 15:52 | 40.45804 | 29.37769 | 41099 ft | 494 kts | 95° |
| 2026-05-07 15:53 | 40.44949 | 29.46762 | 41097 ft | 495 kts | 95° |
| 2026-05-07 15:53 | 40.44081 | 29.55679 | 41107 ft | 495 kts | 95° |
| 2026-05-07 15:54 | 40.43192 | 29.64636 | 41101 ft | 494 kts | 95° |
| 2026-05-07 15:54 | 40.42290 | 29.73613 | 41101 ft | 494 kts | 95° |
| 2026-05-07 15:55 | 40.41385 | 29.82499 | 41102 ft | 494 kts | 95° |
| 2026-05-07 15:55 | 40.40471 | 29.91435 | 41103 ft | 493 kts | 95° |
| 2026-05-07 15:56 | 40.39551 | 30.00364 | 41109 ft | 493 kts | 95° |
| 2026-05-07 15:56 | 40.38630 | 30.09228 | 41111 ft | 493 kts | 95° |
| 2026-05-07 15:57 | 40.37697 | 30.18139 | 41113 ft | 492 kts | 95° |
| 2026-05-07 15:57 | 40.36760 | 30.27024 | 41112 ft | 492 kts | 95° |
| 2026-05-07 15:58 | 40.35814 | 30.35930 | 41117 ft | 492 kts | 95° |
| 2026-05-07 15:58 | 40.34870 | 30.44751 | 41124 ft | 491 kts | 95° |
| 2026-05-07 15:59 | 40.33913 | 30.53620 | 41130 ft | 491 kts | 95° |
| 2026-05-07 15:59 | 40.32949 | 30.62504 | 41120 ft | 491 kts | 95° |
| 2026-05-07 16:00 | 40.31984 | 30.71323 | 41126 ft | 491 kts | 95° |
| 2026-05-07 16:00 | 40.31010 | 30.80186 | 41132 ft | 491 kts | 95° |
| 2026-05-07 16:01 | 40.30029 | 30.89034 | 41134 ft | 491 kts | 95° |
| 2026-05-07 16:01 | 40.29037 | 30.97908 | 41141 ft | 491 kts | 95° |
| 2026-05-07 16:02 | 40.28045 | 31.06727 | 41145 ft | 491 kts | 95° |
| 2026-05-07 16:02 | 40.27050 | 31.15512 | 40877 ft | 480 kts | 95° |
| 2026-05-07 16:02 | 40.26564 | 31.19766 | 40545 ft | 476 kts | 95° |
| 2026-05-07 16:03 | 40.26076 | 31.24047 | 40080 ft | 475 kts | 95° |
| 2026-05-07 16:03 | 40.25589 | 31.28323 | 39657 ft | 472 kts | 95° |
| 2026-05-07 16:03 | 40.25100 | 31.32574 | 39232 ft | 470 kts | 95° |
| 2026-05-07 16:03 | 40.24611 | 31.36815 | 38811 ft | 469 kts | 95° |
| 2026-05-07 16:04 | 40.24122 | 31.41037 | 38305 ft | 468 kts | 94° |
| 2026-05-07 16:04 | 40.23634 | 31.45235 | 37876 ft | 464 kts | 94° |
| 2026-05-07 16:04 | 40.23153 | 31.49359 | 37456 ft | 460 kts | 94° |
| 2026-05-07 16:04 | 40.22671 | 31.53482 | 37054 ft | 457 kts | 94° |
| 2026-05-07 16:05 | 40.22192 | 31.57575 | 36621 ft | 454 kts | 94° |
| 2026-05-07 16:05 | 40.21713 | 31.61656 | 36193 ft | 454 kts | 94° |
| 2026-05-07 16:05 | 40.21228 | 31.65760 | 35766 ft | 455 kts | 94° |
| 2026-05-07 16:05 | 40.20749 | 31.69814 | 35301 ft | 457 kts | 93° |
| 2026-05-07 16:06 | 40.20263 | 31.73937 | 34847 ft | 459 kts | 93° |
| 2026-05-07 16:06 | 40.19774 | 31.78080 | 34214 ft | 463 kts | 93° |
| 2026-05-07 16:06 | 40.19276 | 31.82278 | 33386 ft | 468 kts | 94° |
| 2026-05-07 16:06 | 40.19052 | 31.86496 | 32650 ft | 461 kts | 81° |
| 2026-05-07 16:07 | 40.19620 | 31.90550 | 31917 ft | 448 kts | 64° |
| 2026-05-07 16:07 | 40.20776 | 31.94286 | 31354 ft | 440 kts | 59° |
| 2026-05-07 16:07 | 40.22021 | 31.97934 | 30877 ft | 436 kts | 59° |
| 2026-05-07 16:07 | 40.23240 | 32.01497 | 30382 ft | 432 kts | 59° |
| 2026-05-07 16:08 | 40.24474 | 32.05124 | 29842 ft | 429 kts | 59° |
| 2026-05-07 16:08 | 40.25661 | 32.08628 | 29338 ft | 425 kts | 59° |
| 2026-05-07 16:08 | 40.26851 | 32.12148 | 28831 ft | 421 kts | 59° |
| 2026-05-07 16:08 | 40.28029 | 32.15643 | 28327 ft | 417 kts | 59° |
| 2026-05-07 16:09 | 40.29197 | 32.19111 | 27799 ft | 414 kts | 59° |
| 2026-05-07 16:09 | 40.30354 | 32.22552 | 27320 ft | 411 kts | 59° |
| 2026-05-07 16:09 | 40.31501 | 32.25969 | 26834 ft | 408 kts | 59° |
| 2026-05-07 16:09 | 40.32641 | 32.29369 | 26328 ft | 406 kts | 59° |
| 2026-05-07 16:10 | 40.33777 | 32.32758 | 25824 ft | 405 kts | 60° |
| 2026-05-07 16:10 | 40.34905 | 32.36130 | 25327 ft | 403 kts | 60° |
| 2026-05-07 16:10 | 40.35983 | 32.39521 | 24835 ft | 404 kts | 64° |
| 2026-05-07 16:10 | 40.36600 | 32.43157 | 24317 ft | 414 kts | 80° |
| 2026-05-07 16:11 | 40.36421 | 32.46909 | 23772 ft | 423 kts | 98° |
| 2026-05-07 16:11 | 40.35369 | 32.50528 | 23169 ft | 429 kts | 117° |
| 2026-05-07 16:11 | 40.33721 | 32.53787 | 22605 ft | 427 kts | 124° |
| 2026-05-07 16:11 | 40.31969 | 32.56926 | 22084 ft | 423 kts | 125° |
| 2026-05-07 16:12 | 40.30235 | 32.60030 | 21688 ft | 417 kts | 124° |
| 2026-05-07 16:12 | 40.28555 | 32.63048 | 21519 ft | 404 kts | 124° |
| 2026-05-07 16:12 | 40.26940 | 32.65954 | 21393 ft | 392 kts | 124° |
| 2026-05-07 16:12 | 40.25362 | 32.68801 | 21259 ft | 381 kts | 124° |
| 2026-05-07 16:13 | 40.23822 | 32.71583 | 21108 ft | 371 kts | 124° |
| 2026-05-07 16:13 | 40.22326 | 32.74286 | 20949 ft | 362 kts | 124° |
| 2026-05-07 16:13 | 40.20868 | 32.76922 | 20793 ft | 354 kts | 124° |
| 2026-05-07 16:13 | 40.19686 | 32.79640 | 20635 ft | 343 kts | 106° |
| 2026-05-07 16:14 | 40.19435 | 32.82641 | 20479 ft | 327 kts | 78° |
| 2026-05-07 16:14 | 40.20222 | 32.85323 | 20333 ft | 310 kts | 50° |
| 2026-05-07 16:14 | 40.21747 | 32.87187 | 20168 ft | 296 kts | 27° |
| 2026-05-07 16:14 | 40.23578 | 32.88364 | 19878 ft | 291 kts | 24° |
| 2026-05-07 16:15 | 40.25302 | 32.89753 | 19363 ft | 290 kts | 31° |
| 2026-05-07 16:15 | 40.26951 | 32.91270 | 18766 ft | 286 kts | 33° |
| 2026-05-07 16:15 | 40.28532 | 32.92768 | 18383 ft | 280 kts | 33° |
| 2026-05-07 16:15 | 40.30109 | 32.94271 | 18069 ft | 280 kts | 33° |
| 2026-05-07 16:16 | 40.31688 | 32.95777 | 17771 ft | 281 kts | 33° |
| 2026-05-07 16:16 | 40.33274 | 32.97292 | 17492 ft | 282 kts | 33° |
| 2026-05-07 16:16 | 40.34864 | 32.98808 | 17176 ft | 283 kts | 33° |
| 2026-05-07 16:16 | 40.36462 | 33.00334 | 16882 ft | 284 kts | 33° |
| 2026-05-07 16:17 | 40.38058 | 33.01864 | 16593 ft | 284 kts | 33° |
| 2026-05-07 16:17 | 40.39655 | 33.03393 | 16321 ft | 284 kts | 34° |
| 2026-05-07 16:17 | 40.41227 | 33.04900 | 16095 ft | 283 kts | 33° |
| 2026-05-07 16:17 | 40.42807 | 33.06415 | 15877 ft | 282 kts | 33° |
| 2026-05-07 16:18 | 40.44392 | 33.07936 | 15657 ft | 280 kts | 33° |
| 2026-05-07 16:18 | 40.45973 | 33.09454 | 15425 ft | 280 kts | 33° |
| 2026-05-07 16:18 | 40.47465 | 33.11098 | 15044 ft | 283 kts | 44° |
| 2026-05-07 16:18 | 40.48577 | 33.13250 | 14220 ft | 293 kts | 65° |
| 2026-05-07 16:19 | 40.48921 | 33.15921 | 13065 ft | 304 kts | 96° |
| 2026-05-07 16:19 | 40.48189 | 33.18505 | 12044 ft | 306 kts | 127° |
| 2026-05-07 16:19 | 40.46575 | 33.20260 | 11100 ft | 301 kts | 157° |
| 2026-05-07 16:19 | 40.44566 | 33.20729 | 10130 ft | 296 kts | 188° |
| 2026-05-07 16:20 | 40.42591 | 33.19975 | 9170 ft | 288 kts | 204° |
| 2026-05-07 16:20 | 40.40779 | 33.19014 | 8291 ft | 282 kts | 204° |
| 2026-05-07 16:20 | 40.38966 | 33.18103 | 7419 ft | 276 kts | 202° |
| 2026-05-07 16:20 | 40.37170 | 33.17253 | 6654 ft | 272 kts | 201° |
| 2026-05-07 16:21 | 40.35373 | 33.16437 | 6160 ft | 272 kts | 201° |
| 2026-05-07 16:21 | 40.33607 | 33.15656 | 6004 ft | 258 kts | 200° |
| 2026-05-07 16:21 | 40.31963 | 33.14942 | 5977 ft | 243 kts | 200° |
| 2026-05-07 16:21 | 40.30376 | 33.14253 | 5994 ft | 239 kts | 200° |
| 2026-05-07 16:22 | 40.28818 | 33.13579 | 6006 ft | 239 kts | 201° |
| 2026-05-07 16:22 | 40.27249 | 33.12880 | 5984 ft | 237 kts | 203° |
| 2026-05-07 16:22 | 40.25795 | 33.11992 | 5973 ft | 225 kts | 212° |
| 2026-05-07 16:22 | 40.24514 | 33.10847 | 5754 ft | 220 kts | 218° |
| 2026-05-07 16:23 | 40.23311 | 33.09717 | 5474 ft | 203 kts | 216° |
| 2026-05-07 16:23 | 40.22221 | 33.08695 | 5163 ft | 182 kts | 219° |
| 2026-05-07 16:23 | 40.21574 | 33.08069 | 4990 ft | 167 kts | 218° |
| 2026-05-07 16:23 | 40.20418 | 33.06961 | 4697 ft | 143 kts | 219° |
| 2026-05-07 16:24 | 40.11141 | 32.98624 | 4605 ft | 1 kts | 216° |